sensor_id;sensor_type;location;lat;lon;timestamp;pressure;altitude;pressure_sealevel;temperature
54306;BMP280;64314;45.188;5.712;2022-11-15T00:01:31;99254.72;;;20.89
54306;BMP280;64314;45.188;5.712;2022-11-15T00:06:37;99255.97;;;20.98
54306;BMP280;64314;45.188;5.712;2022-11-15T00:09:03;99250.44;;;20.98
54306;BMP280;64314;45.188;5.712;2022-11-15T00:11:28;99237.78;;;20.95
54306;BMP280;64314;45.188;5.712;2022-11-15T00:13:55;99233.53;;;20.94
54306;BMP280;64314;45.188;5.712;2022-11-15T00:16:43;99252.00;;;21.01
54306;BMP280;64314;45.188;5.712;2022-11-15T00:22:33;99233.53;;;20.94
54306;BMP280;64314;45.188;5.712;2022-11-15T00:24:59;99238.78;;;20.99
54306;BMP280;64314;45.188;5.712;2022-11-15T00:27:26;99240.91;;;21.01
54306;BMP280;64314;45.188;5.712;2022-11-15T00:29:52;99238.63;;;20.97
54306;BMP280;64314;45.188;5.712;2022-11-15T00:32:18;99225.22;;;20.94
54306;BMP280;64314;45.188;5.712;2022-11-15T00:34:43;99229.00;;;20.98
54306;BMP280;64314;45.188;5.712;2022-11-15T00:37:09;99223.56;;;21.00
54306;BMP280;64314;45.188;5.712;2022-11-15T00:39:34;99235.66;;;21.05
54306;BMP280;64314;45.188;5.712;2022-11-15T00:42:00;99226.75;;;21.06
54306;BMP280;64314;45.188;5.712;2022-11-15T00:44:25;99222.38;;;21.03
54306;BMP280;64314;45.188;5.712;2022-11-15T00:47:00;99216.25;;;21.05
54306;BMP280;64314;45.188;5.712;2022-11-15T00:49:31;99207.81;;;21.03
54306;BMP280;64314;45.188;5.712;2022-11-15T00:52:10;99206.63;;;21.06
54306;BMP280;64314;45.188;5.712;2022-11-15T00:54:36;99216.50;;;21.09
54306;BMP280;64314;45.188;5.712;2022-11-15T00:57:01;99212.16;;;21.06
54306;BMP280;64314;45.188;5.712;2022-11-15T00:59:33;99223.25;;;21.06
54306;BMP280;64314;45.188;5.712;2022-11-15T01:01:58;99221.00;;;21.14
54306;BMP280;64314;45.188;5.712;2022-11-15T01:04:36;99222.31;;;21.13
54306;BMP280;64314;45.188;5.712;2022-11-15T01:07:14;99212.91;;;21.06
54306;BMP280;64314;45.188;5.712;2022-11-15T01:10:03;99231.25;;;21.11
54306;BMP280;64314;45.188;5.712;2022-11-15T01:12:28;99219.16;;;21.07
54306;BMP280;64314;45.188;5.712;2022-11-15T01:15:00;99218.91;;;21.03
54306;BMP280;64314;45.188;5.712;2022-11-15T01:17:26;99225.28;;;21.05
54306;BMP280;64314;45.188;5.712;2022-11-15T01:20:03;99233.28;;;21.11
54306;BMP280;64314;45.188;5.712;2022-11-15T01:22:44;99224.00;;;21.06
54306;BMP280;64314;45.188;5.712;2022-11-15T01:25:09;99221.47;;;21.10
54306;BMP280;64314;45.188;5.712;2022-11-15T01:27:41;99207.94;;;21.05
54306;BMP280;64314;45.188;5.712;2022-11-15T01:30:15;99208.78;;;21.07
54306;BMP280;64314;45.188;5.712;2022-11-15T01:32:41;99205.88;;;21.05
54306;BMP280;64314;45.188;5.712;2022-11-15T01:35:12;99210.84;;;21.07
54306;BMP280;64314;45.188;5.712;2022-11-15T01:37:44;99206.88;;;21.10
54306;BMP280;64314;45.188;5.712;2022-11-15T01:40:10;99221.59;;;21.12
54306;BMP280;64314;45.188;5.712;2022-11-15T01:42:35;99214.00;;;21.13
54306;BMP280;64314;45.188;5.712;2022-11-15T01:45:01;99200.47;;;21.07
54306;BMP280;64314;45.188;5.712;2022-11-15T01:47:30;99214.00;;;21.13
54306;BMP280;64314;45.188;5.712;2022-11-15T01:49:59;99204.81;;;21.10
54306;BMP280;64314;45.188;5.712;2022-11-15T01:52:28;99198.72;;;21.12
54306;BMP280;64314;45.188;5.712;2022-11-15T01:55:14;99196.31;;;21.18
54306;BMP280;64314;45.188;5.712;2022-11-15T01:57:42;99196.19;;;21.16
54306;BMP280;64314;45.188;5.712;2022-11-15T02:00:10;99185.69;;;21.14
54306;BMP280;64314;45.188;5.712;2022-11-15T02:02:37;99176.06;;;21.15
54306;BMP280;64314;45.188;5.712;2022-11-15T02:05:03;99172.56;;;21.15
54306;BMP280;64314;45.188;5.712;2022-11-15T02:07:30;99181.41;;;21.23
54306;BMP280;64314;45.188;5.712;2022-11-15T02:10:01;99175.13;;;21.22
54306;BMP280;64314;45.188;5.712;2022-11-15T02:12:27;99172.06;;;21.18
54306;BMP280;64314;45.188;5.712;2022-11-15T02:14:54;99179.94;;;21.22
54306;BMP280;64314;45.188;5.712;2022-11-15T02:20:27;99164.22;;;21.15
54306;BMP280;64314;45.188;5.712;2022-11-15T02:26:26;99158.59;;;21.24
54306;BMP280;64314;45.188;5.712;2022-11-15T02:29:05;99165.59;;;21.25
54306;BMP280;64314;45.188;5.712;2022-11-15T02:34:42;99159.91;;;21.23
54306;BMP280;64314;45.188;5.712;2022-11-15T02:39:43;99140.91;;;21.29
54306;BMP280;64314;45.188;5.712;2022-11-15T02:42:19;99136.41;;;21.24
54306;BMP280;64314;45.188;5.712;2022-11-15T02:45:07;99131.72;;;21.27
54306;BMP280;64314;45.188;5.712;2022-11-15T02:47:39;99133.63;;;21.24
54306;BMP280;64314;45.188;5.712;2022-11-15T02:50:09;99139.31;;;21.26
54306;BMP280;64314;45.188;5.712;2022-11-15T02:52:38;99138.59;;;21.26
54306;BMP280;64314;45.188;5.712;2022-11-15T02:55:35;99138.59;;;21.26
54306;BMP280;64314;45.188;5.712;2022-11-15T02:58:45;99138.25;;;21.31
54306;BMP280;64314;45.188;5.712;2022-11-15T03:04:37;99130.03;;;21.33
54306;BMP280;64314;45.188;5.712;2022-11-15T03:07:48;99132.97;;;21.35
54306;BMP280;64314;45.188;5.712;2022-11-15T03:13:40;99123.03;;;21.32
54306;BMP280;64314;45.188;5.712;2022-11-15T03:22:04;99132.97;;;21.35
54306;BMP280;64314;45.188;5.712;2022-11-15T03:24:34;99122.19;;;21.30
54306;BMP280;64314;45.188;5.712;2022-11-15T03:27:02;99133.28;;;21.30
54306;BMP280;64314;45.188;5.712;2022-11-15T03:29:34;99135.59;;;21.33
54306;BMP280;64314;45.188;5.712;2022-11-15T03:32:30;99114.72;;;21.32
54306;BMP280;64314;45.188;5.712;2022-11-15T03:35:30;99111.34;;;21.34
54306;BMP280;64314;45.188;5.712;2022-11-15T03:38:13;99111.47;;;21.36
54306;BMP280;64314;45.188;5.712;2022-11-15T03:40:42;99120.66;;;21.38
54306;BMP280;64314;45.188;5.712;2022-11-15T03:43:46;99111.13;;;21.41
54306;BMP280;64314;45.188;5.712;2022-11-15T03:46:40;99093.75;;;21.41
54306;BMP280;64314;45.188;5.712;2022-11-15T03:49:25;99081.81;;;21.38
54306;BMP280;64314;45.188;5.712;2022-11-15T03:51:53;99090.25;;;21.40
54306;BMP280;64314;45.188;5.712;2022-11-15T03:54:21;99093.66;;;21.39
54306;BMP280;64314;45.188;5.712;2022-11-15T03:56:46;99093.91;;;21.43
54306;BMP280;64314;45.188;5.712;2022-11-15T03:59:12;99086.06;;;21.39
54306;BMP280;64314;45.188;5.712;2022-11-15T04:01:37;99085.44;;;21.41
54306;BMP280;64314;45.188;5.712;2022-11-15T04:04:03;99074.81;;;21.37
54306;BMP280;64314;45.188;5.712;2022-11-15T04:06:29;99075.53;;;21.38
54306;BMP280;64314;45.188;5.712;2022-11-15T04:08:54;99072.91;;;21.40
54306;BMP280;64314;45.188;5.712;2022-11-15T04:11:20;99073.13;;;21.44
54306;BMP280;64314;45.188;5.712;2022-11-15T04:13:45;99075.06;;;21.41
54306;BMP280;64314;45.188;5.712;2022-11-15T04:16:12;99065.69;;;21.46
54306;BMP280;64314;45.188;5.712;2022-11-15T04:18:38;99058.69;;;21.45
54306;BMP280;64314;45.188;5.712;2022-11-15T04:21:03;99049.63;;;21.45
54306;BMP280;64314;45.188;5.712;2022-11-15T04:23:47;99053.38;;;21.49
54306;BMP280;64314;45.188;5.712;2022-11-15T04:26:32;99049.75;;;21.47
54306;BMP280;64314;45.188;5.712;2022-11-15T04:28:57;99049.75;;;21.47
54306;BMP280;64314;45.188;5.712;2022-11-15T04:31:41;99034.28;;;21.44
54306;BMP280;64314;45.188;5.712;2022-11-15T04:34:07;99042.63;;;21.44
54306;BMP280;64314;45.188;5.712;2022-11-15T04:36:32;99035.75;;;21.45
54306;BMP280;64314;45.188;5.712;2022-11-15T04:39:17;99035.75;;;21.45
54306;BMP280;64314;45.188;5.712;2022-11-15T04:45:03;99036.50;;;21.45
54306;BMP280;64314;45.188;5.712;2022-11-15T04:47:29;99035.28;;;21.48
54306;BMP280;64314;45.188;5.712;2022-11-15T04:49:54;99026.34;;;21.50
54306;BMP280;64314;45.188;5.712;2022-11-15T04:52:20;99022.25;;;21.51
54306;BMP280;64314;45.188;5.712;2022-11-15T04:54:45;99024.44;;;21.52
54306;BMP280;64314;45.188;5.712;2022-11-15T04:57:11;99013.94;;;21.51
54306;BMP280;64314;45.188;5.712;2022-11-15T04:59:36;99010.91;;;21.47
54306;BMP280;64314;45.188;5.712;2022-11-15T05:02:02;99016.72;;;21.51
54306;BMP280;64314;45.188;5.712;2022-11-15T05:04:27;99010.44;;;21.50
54306;BMP280;64314;45.188;5.712;2022-11-15T05:06:53;98997.03;;;21.47
54306;BMP280;64314;45.188;5.712;2022-11-15T05:09:19;99000.06;;;21.51
54306;BMP280;64314;45.188;5.712;2022-11-15T05:11:45;98991.13;;;21.52
54306;BMP280;64314;45.188;5.712;2022-11-15T05:14:11;98993.06;;;21.50
54306;BMP280;64314;45.188;5.712;2022-11-15T05:16:36;98990.41;;;21.52
54306;BMP280;64314;45.188;5.712;2022-11-15T05:19:03;98989.22;;;21.55
54306;BMP280;64314;45.188;5.712;2022-11-15T05:21:28;98982.19;;;21.54
54306;BMP280;64314;45.188;5.712;2022-11-15T05:23:54;98970.97;;;21.52
54306;BMP280;64314;45.188;5.712;2022-11-15T05:26:19;98975.34;;;21.55
54306;BMP280;64314;45.188;5.712;2022-11-15T05:28:45;98969.88;;;21.57
54306;BMP280;64314;45.188;5.712;2022-11-15T05:31:15;98959.44;;;21.56
54306;BMP280;64314;45.188;5.712;2022-11-15T05:33:42;98969.41;;;21.61
54306;BMP280;64314;45.188;5.712;2022-11-15T05:36:37;98960.97;;;21.59
54306;BMP280;64314;45.188;5.712;2022-11-15T05:39:04;98960.75;;;21.55
54306;BMP280;64314;45.188;5.712;2022-11-15T05:41:35;98954.47;;;21.54
54306;BMP280;64314;45.188;5.712;2022-11-15T05:44:06;98971.44;;;21.60
54306;BMP280;64314;45.188;5.712;2022-11-15T05:46:33;98950.72;;;21.61
54306;BMP280;64314;45.188;5.712;2022-11-15T05:48:59;98952.75;;;21.61
54306;BMP280;64314;45.188;5.712;2022-11-15T05:51:27;98957.81;;;21.64
54306;BMP280;64314;45.188;5.712;2022-11-15T05:53:55;98945.06;;;21.59
54306;BMP280;64314;45.188;5.712;2022-11-15T05:56:22;98946.88;;;21.66
54306;BMP280;64314;45.188;5.712;2022-11-15T05:58:47;98948.19;;;21.65
54306;BMP280;64314;45.188;5.712;2022-11-15T06:01:13;98939.63;;;21.61
54306;BMP280;64314;45.188;5.712;2022-11-15T06:03:39;98944.56;;;21.63
54306;BMP280;64314;45.188;5.712;2022-11-15T06:09:18;98952.25;;;21.64
54306;BMP280;64314;45.188;5.712;2022-11-15T06:11:46;98957.81;;;21.64
54306;BMP280;64314;45.188;5.712;2022-11-15T06:14:12;98967.03;;;21.67
54306;BMP280;64314;45.188;5.712;2022-11-15T06:16:38;98958.53;;;21.65
54306;BMP280;64314;45.188;5.712;2022-11-15T06:19:05;98956.41;;;21.63
54306;BMP280;64314;45.188;5.712;2022-11-15T06:21:31;98957.81;;;21.64
54306;BMP280;64314;45.188;5.712;2022-11-15T06:23:56;98963.38;;;21.64
54306;BMP280;64314;45.188;5.712;2022-11-15T06:26:22;98955.19;;;21.66
54306;BMP280;64314;45.188;5.712;2022-11-15T06:28:47;98946.47;;;21.60
54306;BMP280;64314;45.188;5.712;2022-11-15T06:31:13;98958.31;;;21.61
54306;BMP280;64314;45.188;5.712;2022-11-15T06:33:39;98953.47;;;21.61
54306;BMP280;64314;45.188;5.712;2022-11-15T06:36:08;98968.22;;;21.64
54306;BMP280;64314;45.188;5.712;2022-11-15T06:44:48;98964.72;;;21.63
54306;BMP280;64314;45.188;5.712;2022-11-15T06:47:22;98956.00;;;21.57
54306;BMP280;64314;45.188;5.712;2022-11-15T06:50:07;98952.75;;;21.61
54306;BMP280;64314;45.188;5.712;2022-11-15T06:52:49;98946.38;;;21.58
54306;BMP280;64314;45.188;5.712;2022-11-15T06:55:28;98955.44;;;21.59
54306;BMP280;64314;45.188;5.712;2022-11-15T06:58:15;98966.78;;;21.63
54306;BMP280;64314;45.188;5.712;2022-11-15T07:00:51;98966.78;;;21.63
54306;BMP280;64314;45.188;5.712;2022-11-15T07:03:19;98958.22;;;21.59
54306;BMP280;64314;45.188;5.712;2022-11-15T07:05:55;98964.09;;;21.65
54306;BMP280;64314;45.188;5.712;2022-11-15T07:08:24;98953.16;;;21.67
54306;BMP280;64314;45.188;5.712;2022-11-15T07:10:54;98949.16;;;21.58
54306;BMP280;64314;45.188;5.712;2022-11-15T07:13:24;98954.81;;;21.60
54306;BMP280;64314;45.188;5.712;2022-11-15T07:15:50;98952.75;;;21.61
54306;BMP280;64314;45.188;5.712;2022-11-15T07:18:15;98949.75;;;21.57
54306;BMP280;64314;45.188;5.712;2022-11-15T07:20:40;98959.03;;;21.61
54306;BMP280;64314;45.188;5.712;2022-11-15T07:23:06;98951.81;;;21.56
54306;BMP280;64314;45.188;5.712;2022-11-15T07:25:31;98955.91;;;21.55
54306;BMP280;64314;45.188;5.712;2022-11-15T07:27:58;98948.91;;;21.54
54306;BMP280;64314;45.188;5.712;2022-11-15T07:30:24;98948.91;;;21.54
54306;BMP280;64314;45.188;5.712;2022-11-15T07:32:58;98951.94;;;21.58
54306;BMP280;64314;45.188;5.712;2022-11-15T07:35:25;98959.53;;;21.58
54306;BMP280;64314;45.188;5.712;2022-11-15T07:40:20;98950.25;;;21.53
54306;BMP280;64314;45.188;5.712;2022-11-15T07:42:48;98957.47;;;21.58
54306;BMP280;64314;45.188;5.712;2022-11-15T07:45:22;98950.25;;;21.53
54306;BMP280;64314;45.188;5.712;2022-11-15T07:47:59;98951.69;;;21.54
54306;BMP280;64314;45.188;5.712;2022-11-15T07:50:25;98946.25;;;21.56
54306;BMP280;64314;45.188;5.712;2022-11-15T07:52:59;98939.28;;;21.55
54306;BMP280;64314;45.188;5.712;2022-11-15T07:55:26;98944.81;;;21.55
54306;BMP280;64314;45.188;5.712;2022-11-15T07:57:53;98943.38;;;21.54
54306;BMP280;64314;45.188;5.712;2022-11-15T08:00:19;98950.47;;;21.57
54306;BMP280;64314;45.188;5.712;2022-11-15T08:02:45;98948.91;;;21.54
54306;BMP280;64314;45.188;5.712;2022-11-15T08:05:11;98951.09;;;21.56
54306;BMP280;64314;45.188;5.712;2022-11-15T08:07:36;98945.19;;;21.49
54306;BMP280;64314;45.188;5.712;2022-11-15T08:10:03;98937.09;;;21.53
54306;BMP280;64314;45.188;5.712;2022-11-15T08:12:31;98934.56;;;21.46
54306;BMP280;64314;45.188;5.712;2022-11-15T08:14:57;98939.63;;;21.49
54306;BMP280;64314;45.188;5.712;2022-11-15T08:17:23;98946.00;;;21.52
54306;BMP280;64314;45.188;5.712;2022-11-15T08:19:49;98940.34;;;21.50
54306;BMP280;64314;45.188;5.712;2022-11-15T08:22:14;98943.13;;;21.50
54306;BMP280;64314;45.188;5.712;2022-11-15T08:24:42;98941.81;;;21.51
54306;BMP280;64314;45.188;5.712;2022-11-15T08:27:08;98933.97;;;21.47
54306;BMP280;64314;45.188;5.712;2022-11-15T08:29:43;98933.47;;;21.51
54306;BMP280;64314;45.188;5.712;2022-11-15T08:32:10;98941.94;;;21.53
54306;BMP280;64314;45.188;5.712;2022-11-15T08:34:37;98919.97;;;21.45
54306;BMP280;64314;45.188;5.712;2022-11-15T08:37:02;98923.69;;;21.50
54306;BMP280;64314;45.188;5.712;2022-11-15T08:39:28;98917.44;;;21.49
54306;BMP280;64314;45.188;5.712;2022-11-15T08:41:53;98912.22;;;21.44
54306;BMP280;64314;45.188;5.712;2022-11-15T08:44:18;98903.81;;;21.42
54306;BMP280;64314;45.188;5.712;2022-11-15T08:46:47;98910.19;;;21.44
54306;BMP280;64314;45.188;5.712;2022-11-15T08:49:13;98915.88;;;21.46
54306;BMP280;64314;45.188;5.712;2022-11-15T08:51:38;98913.94;;;21.49
54306;BMP280;64314;45.188;5.712;2022-11-15T08:54:04;98905.50;;;21.47
54306;BMP280;64314;45.188;5.712;2022-11-15T08:56:30;98905.75;;;21.51
54306;BMP280;64314;45.188;5.712;2022-11-15T08:58:55;98896.06;;;21.52
54306;BMP280;64314;45.188;5.712;2022-11-15T09:01:21;98884.66;;;21.46
54306;BMP280;64314;45.188;5.712;2022-11-15T09:03:47;98897.19;;;21.47
54306;BMP280;64314;45.188;5.712;2022-11-15T09:06:13;98893.19;;;21.50
54306;BMP280;64314;45.188;5.712;2022-11-15T09:08:39;98886.19;;;21.49
54306;BMP280;64314;45.188;5.712;2022-11-15T09:11:05;98885.47;;;21.48
54306;BMP280;64314;45.188;5.712;2022-11-15T09:13:32;98890.19;;;21.46
54306;BMP280;64314;45.188;5.712;2022-11-15T09:15:58;98879.09;;;21.46
54306;BMP280;64314;45.188;5.712;2022-11-15T09:18:24;98873.41;;;21.44
54306;BMP280;64314;45.188;5.712;2022-11-15T09:20:50;98879.31;;;21.50
54306;BMP280;64314;45.188;5.712;2022-11-15T09:23:16;98884.84;;;21.50
54306;BMP280;64314;45.188;5.712;2022-11-15T09:25:41;98884.38;;;21.53
54306;BMP280;64314;45.188;5.712;2022-11-15T09:28:07;98874.50;;;21.50
54306;BMP280;64314;45.188;5.712;2022-11-15T09:30:33;98869.66;;;21.51
54306;BMP280;64314;45.188;5.712;2022-11-15T09:32:59;98872.78;;;21.57
54306;BMP280;64314;45.188;5.712;2022-11-15T09:35:31;98873.50;;;21.58
54306;BMP280;64314;45.188;5.712;2022-11-15T09:37:57;98860.38;;;21.58
54306;BMP280;64314;45.188;5.712;2022-11-15T09:40:23;98857.84;;;21.62
54306;BMP280;64314;45.188;5.712;2022-11-15T09:43:05;98851.47;;;21.60
54306;BMP280;64314;45.188;5.712;2022-11-15T09:45:52;98847.97;;;21.59
54306;BMP280;64314;45.188;5.712;2022-11-15T09:48:25;98850.25;;;21.63
54306;BMP280;64314;45.188;5.712;2022-11-15T09:50:56;98847.97;;;21.59
54306;BMP280;64314;45.188;5.712;2022-11-15T09:53:34;98833.34;;;21.59
54306;BMP280;64314;45.188;5.712;2022-11-15T09:56:15;98836.22;;;21.61
54306;BMP280;64314;45.188;5.712;2022-11-15T10:04:00;98829.94;;;21.60
54306;BMP280;64314;45.188;5.712;2022-11-15T10:06:26;98837.09;;;21.63
54306;BMP280;64314;45.188;5.712;2022-11-15T10:09:01;98838.72;;;21.68
54306;BMP280;64314;45.188;5.712;2022-11-15T10:11:32;98827.75;;;21.70
54306;BMP280;64314;45.188;5.712;2022-11-15T10:14:21;98819.53;;;21.72
54306;BMP280;64314;45.188;5.712;2022-11-15T10:22:33;98818.34;;;21.75
54306;BMP280;64314;45.188;5.712;2022-11-15T10:25:17;98808.44;;;21.72
54306;BMP280;64314;45.188;5.712;2022-11-15T10:27:47;98805.78;;;21.74
54306;BMP280;64314;45.188;5.712;2022-11-15T10:30:17;98792.28;;;21.69
54306;BMP280;64314;45.188;5.712;2022-11-15T10:32:45;98787.59;;;21.71
54306;BMP280;64314;45.188;5.712;2022-11-15T10:35:20;98796.16;;;21.75
54306;BMP280;64314;45.188;5.712;2022-11-15T10:37:46;98788.28;;;21.72
54306;BMP280;64314;45.188;5.712;2022-11-15T10:40:18;98773.59;;;21.69
54306;BMP280;64314;45.188;5.712;2022-11-15T10:42:44;98778.75;;;21.75
54306;BMP280;64314;45.188;5.712;2022-11-15T10:45:29;98762.22;;;21.77
54306;BMP280;64314;45.188;5.712;2022-11-15T10:50:43;98775.38;;;21.76
54306;BMP280;64314;45.188;5.712;2022-11-15T10:53:23;98760.31;;;21.68
54306;BMP280;64314;45.188;5.712;2022-11-15T10:55:53;98758.16;;;21.66
54306;BMP280;64314;45.188;5.712;2022-11-15T10:58:32;98768.63;;;21.68
54306;BMP280;64314;45.188;5.712;2022-11-15T11:01:18;98754.16;;;21.69
54306;BMP280;64314;45.188;5.712;2022-11-15T11:04:07;98745.03;;;21.67
54306;BMP280;64314;45.188;5.712;2022-11-15T11:06:50;98751.50;;;21.71
54306;BMP280;64314;45.188;5.712;2022-11-15T11:09:25;98741.94;;;21.74
54306;BMP280;64314;45.188;5.712;2022-11-15T11:11:53;98727.88;;;21.84
54306;BMP280;64314;45.188;5.712;2022-11-15T11:14:39;98723.63;;;21.94
54306;BMP280;64314;45.188;5.712;2022-11-15T11:22:30;98706.59;;;22.27
54306;BMP280;64314;45.188;5.712;2022-11-15T11:30:09;98704.69;;;22.56
54306;BMP280;64314;45.188;5.712;2022-11-15T11:35:52;98691.50;;;22.71
54306;BMP280;64314;45.188;5.712;2022-11-15T11:52:33;98637.56;;;23.05
54306;BMP280;64314;45.188;5.712;2022-11-15T11:55:11;98626.63;;;23.09
54306;BMP280;64314;45.188;5.712;2022-11-15T12:00:22;98619.81;;;23.12
54306;BMP280;64314;45.188;5.712;2022-11-15T12:03:26;98626.41;;;23.18
54306;BMP280;64314;45.188;5.712;2022-11-15T12:06:02;98610.16;;;23.13
54306;BMP280;64314;45.188;5.712;2022-11-15T12:08:36;98606.94;;;23.18
54306;BMP280;64314;45.188;5.712;2022-11-15T12:11:20;98608.97;;;23.18
54306;BMP280;64314;45.188;5.712;2022-11-15T12:13:53;98607.94;;;23.25
54306;BMP280;64314;45.188;5.712;2022-11-15T12:16:27;98583.63;;;23.25
54306;BMP280;64314;45.188;5.712;2022-11-15T12:18:56;98582.09;;;23.22
54306;BMP280;64314;45.188;5.712;2022-11-15T12:24:04;98584.81;;;23.36
54306;BMP280;64314;45.188;5.712;2022-11-15T12:26:42;98583.28;;;23.33
54306;BMP280;64314;45.188;5.712;2022-11-15T12:29:19;98579.97;;;23.36
54306;BMP280;64314;45.188;5.712;2022-11-15T12:31:52;98586.38;;;23.41
54306;BMP280;64314;45.188;5.712;2022-11-15T12:36:49;98568.38;;;23.42
54306;BMP280;64314;45.188;5.712;2022-11-15T12:39:15;98564.13;;;23.41
54306;BMP280;64314;45.188;5.712;2022-11-15T12:41:45;98565.88;;;23.48
54306;BMP280;64314;45.188;5.712;2022-11-15T13:00:20;98552.50;;;23.60
54306;BMP280;64314;45.188;5.712;2022-11-15T13:02:49;98534.19;;;23.55
54306;BMP280;64314;45.188;5.712;2022-11-15T13:08:07;98524.75;;;23.62
54306;BMP280;64314;45.188;5.712;2022-11-15T13:10:33;98527.44;;;23.60
54306;BMP280;64314;45.188;5.712;2022-11-15T13:13:01;98514.94;;;23.61
54306;BMP280;64314;45.188;5.712;2022-11-15T13:15:33;98512.16;;;23.61
54306;BMP280;64314;45.188;5.712;2022-11-15T13:18:27;98502.66;;;23.66
54306;BMP280;64314;45.188;5.712;2022-11-15T13:20:53;98497.16;;;23.68
54306;BMP280;64314;45.188;5.712;2022-11-15T13:23:21;98499.94;;;23.68
54306;BMP280;64314;45.188;5.712;2022-11-15T13:34:27;98465.44;;;23.75
54306;BMP280;64314;45.188;5.712;2022-11-15T13:36:53;98459.81;;;23.73
54306;BMP280;64314;45.188;5.712;2022-11-15T13:39:30;98454.13;;;23.71
54306;BMP280;64314;45.188;5.712;2022-11-15T13:41:56;98460.59;;;23.76
54306;BMP280;64314;45.188;5.712;2022-11-15T13:44:24;98447.59;;;23.80
54306;BMP280;64314;45.188;5.712;2022-11-15T13:47:14;98457.34;;;23.81
54306;BMP280;64314;45.188;5.712;2022-11-15T13:49:41;98445.41;;;23.79
54306;BMP280;64314;45.188;5.712;2022-11-15T13:52:10;98442.09;;;23.82
54306;BMP280;64314;45.188;5.712;2022-11-15T13:59:47;98428.72;;;23.79
54306;BMP280;64314;45.188;5.712;2022-11-15T14:02:24;98427.38;;;23.80
54306;BMP280;64314;45.188;5.712;2022-11-15T14:04:56;98423.94;;;23.81
54306;BMP280;64314;45.188;5.712;2022-11-15T14:07:25;98428.09;;;23.80
54306;BMP280;64314;45.188;5.712;2022-11-15T14:09:51;98421.25;;;23.83
54306;BMP280;64314;45.188;5.712;2022-11-15T14:12:29;98415.53;;;23.79
54306;BMP280;64314;45.188;5.712;2022-11-15T14:14:56;98401.50;;;23.77
54306;BMP280;64314;45.188;5.712;2022-11-15T14:17:35;98414.25;;;23.82
54306;BMP280;64314;45.188;5.712;2022-11-15T14:20:01;98408.72;;;23.84
54306;BMP280;64314;45.188;5.712;2022-11-15T14:22:28;98408.84;;;23.86
54306;BMP280;64314;45.188;5.712;2022-11-15T14:25:13;98407.56;;;23.89
54306;BMP280;64314;45.188;5.712;2022-11-15T14:27:43;98396.50;;;23.91
54306;BMP280;64314;45.188;5.712;2022-11-15T14:30:15;98398.91;;;23.99
54306;BMP280;64314;45.188;5.712;2022-11-15T14:32:47;98388.00;;;23.87
54306;BMP280;64314;45.188;5.712;2022-11-15T14:35:20;98388.81;;;23.90
54306;BMP280;64314;45.188;5.712;2022-11-15T14:37:46;98390.09;;;23.87
54306;BMP280;64314;45.188;5.712;2022-11-15T14:40:14;98388.81;;;23.90
54306;BMP280;64314;45.188;5.712;2022-11-15T14:42:41;98384.03;;;23.92
54306;BMP280;64314;45.188;5.712;2022-11-15T14:45:13;98382.50;;;23.89
54306;BMP280;64314;45.188;5.712;2022-11-15T14:47:40;98386.88;;;23.94
54306;BMP280;64314;45.188;5.712;2022-11-15T14:50:05;98394.59;;;23.96
54306;BMP280;64314;45.188;5.712;2022-11-15T14:52:32;98383.41;;;23.94
54306;BMP280;64314;45.188;5.712;2022-11-15T14:55:03;98385.63;;;23.97
54306;BMP280;64314;45.188;5.712;2022-11-15T14:57:29;98377.16;;;23.95
54306;BMP280;64314;45.188;5.712;2022-11-15T14:59:55;98374.22;;;23.91
54306;BMP280;64314;45.188;5.712;2022-11-15T15:02:26;98377.16;;;23.95
54306;BMP280;64314;45.188;5.712;2022-11-15T15:04:52;98372.88;;;23.92
54306;BMP280;64314;45.188;5.712;2022-11-15T15:07:19;98376.31;;;23.91
54306;BMP280;64314;45.188;5.712;2022-11-15T15:09:45;98374.22;;;23.91
54306;BMP280;64314;45.188;5.712;2022-11-15T15:12:20;98374.94;;;23.92
54306;BMP280;64314;45.188;5.712;2022-11-15T15:14:47;98377.16;;;23.95
54306;BMP280;64314;45.188;5.712;2022-11-15T15:17:13;98372.97;;;23.94
54306;BMP280;64314;45.188;5.712;2022-11-15T15:19:39;98361.19;;;23.96
54306;BMP280;64314;45.188;5.712;2022-11-15T15:22:04;98357.75;;;23.97
54306;BMP280;64314;45.188;5.712;2022-11-15T15:24:30;98347.22;;;23.94
54306;BMP280;64314;45.188;5.712;2022-11-15T15:26:55;98362.09;;;24.00
54306;BMP280;64314;45.188;5.712;2022-11-15T15:29:21;98356.41;;;23.98
54306;BMP280;64314;45.188;5.712;2022-11-15T15:31:46;98358.66;;;24.02
54306;BMP280;64314;45.188;5.712;2022-11-15T15:34:12;98359.34;;;24.02
54306;BMP280;64314;45.188;5.712;2022-11-15T15:36:37;98348.22;;;24.02
54306;BMP280;64314;45.188;5.712;2022-11-15T15:39:03;98340.66;;;24.05
54306;BMP280;64314;45.188;5.712;2022-11-15T15:41:28;98327.44;;;24.05
54306;BMP280;64314;45.188;5.712;2022-11-15T15:43:54;98327.38;;;24.03
54306;BMP280;64314;45.188;5.712;2022-11-15T15:46:20;98330.22;;;24.05
54306;BMP280;64314;45.188;5.712;2022-11-15T15:48:46;98325.78;;;23.98
54306;BMP280;64314;45.188;5.712;2022-11-15T15:51:12;98318.94;;;24.01
54306;BMP280;64314;45.188;5.712;2022-11-15T15:53:38;98319.50;;;23.98
54306;BMP280;64314;45.188;5.712;2022-11-15T15:56:04;98316.00;;;23.97
54306;BMP280;64314;45.188;5.712;2022-11-15T15:58:33;98307.50;;;23.93
54306;BMP280;64314;45.188;5.712;2022-11-15T16:00:58;98315.06;;;23.91
54306;BMP280;64314;45.188;5.712;2022-11-15T16:03:24;98305.06;;;23.84
54306;BMP280;64314;45.188;5.712;2022-11-15T16:05:50;98299.22;;;23.77
54306;BMP280;64314;45.188;5.712;2022-11-15T16:08:23;98301.31;;;23.77
54306;BMP280;64314;45.188;5.712;2022-11-15T16:10:49;98297.81;;;23.77
54306;BMP280;64314;45.188;5.712;2022-11-15T16:13:15;98285.78;;;23.72
54306;BMP280;64314;45.188;5.712;2022-11-15T16:15:41;98281.56;;;23.71
54306;BMP280;64314;45.188;5.712;2022-11-15T16:18:17;98287.94;;;23.73
54306;BMP280;64314;45.188;5.712;2022-11-15T16:20:45;98280.16;;;23.70
54306;BMP280;64314;45.188;5.712;2022-11-15T16:23:13;98283.06;;;23.74
54306;BMP280;64314;45.188;5.712;2022-11-15T16:25:47;98277.44;;;23.72
54306;BMP280;64314;45.188;5.712;2022-11-15T16:28:25;98277.78;;;23.80
54306;BMP280;64314;45.188;5.712;2022-11-15T16:33:30;98276.16;;;23.75
54306;BMP280;64314;45.188;5.712;2022-11-15T16:35:56;98274.72;;;23.74
54306;BMP280;64314;45.188;5.712;2022-11-15T16:38:22;98276.88;;;23.76